createdAt,value
2022-08-23T00:02:22.961Z,100938.16
2022-08-23T00:05:03.550Z,100934.50
2022-08-23T00:07:40.136Z,100943.38
2022-08-23T00:10:16.544Z,100937.41
2022-08-23T00:12:47.018Z,100938.47
2022-08-23T00:15:20.277Z,100944.72
2022-08-23T00:17:50.469Z,100942.50
2022-08-23T00:20:22.393Z,100942.38
2022-08-23T00:22:52.073Z,100937.09
2022-08-23T00:25:24.876Z,100942.13
2022-08-23T00:27:55.805Z,100936.13
2022-08-23T00:30:25.992Z,100907.97
2022-08-23T00:32:58.079Z,100918.22
2022-08-23T00:35:28.170Z,100924.81
2022-08-23T00:38:31.907Z,100925.63
2022-08-23T00:40:54.967Z,100909.53
2022-08-23T00:43:42.857Z,100927.63
2022-08-23T00:46:35.194Z,100938.91
2022-08-23T00:49:09.954Z,100921.28
2022-08-23T00:51:53.121Z,100925.56
2022-08-23T00:54:24.894Z,100934.81
2022-08-23T00:56:58.617Z,100931.31
2022-08-23T00:59:29.116Z,100935.06
2022-08-23T01:01:59.758Z,100929.59
2022-08-23T01:04:32.791Z,100935.47
2022-08-23T01:07:07.145Z,100915.84
2022-08-23T01:09:36.881Z,100935.88
2022-08-23T01:12:15.188Z,100918.72
2022-08-23T01:14:50.560Z,100941.88
2022-08-23T01:17:25.326Z,100939.19
2022-08-23T01:19:57.742Z,100935.66
2022-08-23T01:22:31.294Z,100917.97
2022-08-23T01:25:07.398Z,100933.47
2022-08-23T01:27:42.193Z,100924.66
2022-08-23T01:30:20.626Z,100927.41
2022-08-23T01:32:53.424Z,100930.25
2022-08-23T01:38:17.506Z,100929.19
2022-08-23T01:40:51.546Z,100929.88
2022-08-23T01:43:23.313Z,100924.94
2022-08-23T01:45:56.437Z,100915.56
2022-08-23T01:48:27.643Z,100924.22
2022-08-23T01:50:58.601Z,100932.31
2022-08-23T01:53:28.546Z,100915.88
2022-08-23T01:56:03.288Z,100914.75
2022-08-23T01:58:36.069Z,100927.13
2022-08-23T02:01:06.007Z,100934.03
2022-08-23T02:03:38.012Z,100929.34
2022-08-23T02:06:09.013Z,100932.91
2022-08-23T02:08:52.483Z,100923.22
2022-08-23T02:11:28.122Z,100926.47
2022-08-23T02:14:00.989Z,100933.47
2022-08-23T02:16:39.556Z,100931.34
2022-08-23T02:19:14.617Z,100879.13
2022-08-23T02:21:45.910Z,100928.63
2022-08-23T02:24:18.201Z,100925.84
2022-08-23T02:26:56.853Z,100925.44
2022-08-23T02:29:29.862Z,100914.28
2022-08-23T02:32:02.320Z,100929.66
2022-08-23T02:34:38.525Z,100939.31
2022-08-23T02:37:09.382Z,100933.81
2022-08-23T02:39:39.429Z,100936.41
2022-08-23T02:42:14.644Z,100936.22
2022-08-23T02:44:46.522Z,100941.16
2022-08-23T02:47:17.571Z,100934.22
2022-08-23T02:49:55.129Z,100939.31
2022-08-23T02:52:24.938Z,100943.03
2022-08-23T02:54:58.072Z,100932.03
2022-08-23T02:57:31.571Z,100929.69
2022-08-23T03:00:02.781Z,100944.63
2022-08-23T03:02:33.237Z,100941.31
2022-08-23T03:05:03.593Z,100947.59
2022-08-23T03:07:33.842Z,100944.38
2022-08-23T03:10:05.089Z,100947.44
2022-08-23T03:12:40.282Z,100937.88
2022-08-23T03:15:11.870Z,100938.66
2022-08-23T03:17:41.890Z,100926.81
2022-08-23T03:20:14.168Z,100948.22
2022-08-23T03:22:54.338Z,100953.50
2022-08-23T03:25:26.700Z,100943.19
2022-08-23T03:28:16.992Z,100954.47
2022-08-23T03:30:48.112Z,100936.50
2022-08-23T03:33:18.143Z,100939.59
2022-08-23T03:35:49.342Z,100949.25
2022-08-23T03:38:21.381Z,100949.25
2022-08-23T03:40:54.032Z,100935.56
2022-08-23T03:43:27.085Z,100940.63
2022-08-23T03:45:56.954Z,100944.03
2022-08-23T03:48:27.562Z,100938.09
2022-08-23T03:50:57.258Z,100945.50
2022-08-23T03:53:27.808Z,100937.25
2022-08-23T03:55:58.721Z,100943.25
2022-08-23T03:58:31.007Z,100947.84
2022-08-23T04:01:00.681Z,100934.66
2022-08-23T04:03:30.467Z,100935.06
2022-08-23T04:06:08.206Z,100962.34
2022-08-23T04:08:38.079Z,100974.59
2022-08-23T04:11:09.235Z,100963.53
2022-08-23T04:13:43.716Z,100969.25
2022-08-23T04:16:14.636Z,100969.41
2022-08-23T04:18:44.572Z,100965.31
2022-08-23T04:21:25.073Z,100957.78
2022-08-23T04:23:55.209Z,100952.25
2022-08-23T04:26:29.697Z,100984.34
2022-08-23T04:29:02.470Z,100975.53
2022-08-23T04:31:34.680Z,100976.41
2022-08-23T04:34:05.463Z,100979.97
2022-08-23T04:36:46.021Z,100975.53
2022-08-23T04:39:22.340Z,100973.81
2022-08-23T04:42:04.689Z,100988.56
2022-08-23T04:44:37.092Z,100994.28
2022-08-23T04:47:07.529Z,100987.50
2022-08-23T04:49:37.421Z,100993.41
2022-08-23T04:52:07.204Z,100994.38
2022-08-23T04:54:36.987Z,100995.16
2022-08-23T04:57:22.751Z,100999.34
2022-08-23T04:59:55.052Z,101000.91
2022-08-23T05:02:25.258Z,101002.56
2022-08-23T05:04:55.808Z,100997.00
2022-08-23T05:07:41.477Z,100997.88
2022-08-23T05:10:18.204Z,101004.78
2022-08-23T05:12:51.859Z,100988.66
2022-08-23T05:15:26.307Z,100986.97
2022-08-23T05:18:01.825Z,100994.94
2022-08-23T05:20:32.612Z,101007.06
2022-08-23T05:23:03.441Z,101001.00
2022-08-23T05:25:54.249Z,101008.63
2022-08-23T05:28:31.116Z,100994.03
2022-08-23T05:31:11.900Z,101007.53
2022-08-23T05:34:02.445Z,100990.16
2022-08-23T05:36:56.034Z,101015.81
2022-08-23T05:39:36.335Z,101013.22
2022-08-23T05:42:14.011Z,100995.88
2022-08-23T05:44:45.644Z,101010.56
2022-08-23T05:47:23.638Z,101012.19
2022-08-23T05:50:13.905Z,101014.06
2022-08-23T05:52:46.755Z,101024.38
2022-08-23T05:55:19.244Z,100989.81
2022-08-23T05:57:59.265Z,101010.41
2022-08-23T06:00:37.415Z,101018.03
2022-08-23T06:03:11.765Z,101000.56
2022-08-23T06:05:43.534Z,101025.22
2022-08-23T06:08:14.552Z,101016.91
2022-08-23T06:10:44.387Z,101008.34
2022-08-23T06:13:23.669Z,101011.63
2022-08-23T06:15:53.631Z,101028.31
2022-08-23T06:18:26.160Z,101035.03
2022-08-23T06:21:04.035Z,101033.38
2022-08-23T06:23:47.169Z,101033.41
2022-08-23T06:26:21.501Z,101044.75
2022-08-23T06:28:55.191Z,101046.50
2022-08-23T06:31:40.043Z,101047.38
2022-08-23T06:34:21.282Z,101055.31
2022-08-23T06:37:12.005Z,101055.72
2022-08-23T06:40:00.596Z,101041.72
2022-08-23T06:42:49.708Z,101057.22
2022-08-23T06:45:33.935Z,100970.28
2022-08-23T06:48:07.184Z,100837.94
2022-08-23T06:50:43.805Z,101064.63
2022-08-23T06:53:34.064Z,101046.50
2022-08-23T06:56:25.340Z,101052.53
2022-08-23T06:59:07.391Z,101050.25
2022-08-23T07:02:05.353Z,101042.59
2022-08-23T07:04:58.366Z,101052.78
2022-08-23T07:07:44.518Z,100974.34
2022-08-23T07:10:16.708Z,101053.81
2022-08-23T07:12:46.973Z,101057.91
2022-08-23T07:15:17.111Z,101044.16
2022-08-23T07:17:48.515Z,101046.00
2022-08-23T07:20:18.311Z,101068.13
2022-08-23T07:22:50.835Z,101069.28
2022-08-23T07:25:20.812Z,101068.34
2022-08-23T07:27:55.254Z,101062.31
2022-08-23T07:30:25.402Z,101068.97
2022-08-23T07:32:56.396Z,101066.03
2022-08-23T07:35:31.141Z,101071.25
2022-08-23T07:38:04.756Z,101070.22
2022-08-23T07:40:38.981Z,101073.56
2022-08-23T07:43:10.344Z,101070.06
2022-08-23T07:45:43.371Z,101079.81
2022-08-23T07:48:20.443Z,101070.53
2022-08-23T07:51:15.349Z,101088.31
2022-08-23T07:53:48.184Z,101087.41
2022-08-23T07:56:22.146Z,101078.84
2022-08-23T07:59:23.850Z,101069.53
2022-08-23T08:02:12.191Z,101089.81
2022-08-23T08:04:43.184Z,101084.09
2022-08-23T08:07:21.358Z,101076.63
2022-08-23T08:10:01.589Z,101075.03
2022-08-23T08:12:32.985Z,101084.50
2022-08-23T08:15:10.759Z,101080.63
2022-08-23T08:17:42.889Z,101042.63
2022-08-23T08:20:13.186Z,101084.31
2022-08-23T08:23:01.221Z,101085.19
2022-08-23T08:26:08.930Z,101074.72
2022-08-23T08:28:40.587Z,101090.50
2022-08-23T08:31:11.269Z,101078.47
2022-08-23T08:33:41.689Z,101094.75
2022-08-23T08:36:31.991Z,101088.31
2022-08-23T08:39:01.984Z,101089.28
2022-08-23T08:41:46.245Z,101095.69
2022-08-23T08:44:27.357Z,101096.00
2022-08-23T08:46:59.404Z,101098.06
2022-08-23T08:49:40.941Z,101081.81
2022-08-23T08:52:19.646Z,101100.81
2022-08-23T08:54:53.371Z,101096.88
2022-08-23T08:57:28.396Z,101096.25
2022-08-23T09:00:03.440Z,101094.00
2022-08-23T09:02:37.433Z,101095.31
2022-08-23T09:05:15.322Z,101097.38
2022-08-23T09:08:01.272Z,101065.88
2022-08-23T09:10:58.132Z,101095.88
2022-08-23T09:13:56.604Z,101082.69
2022-08-23T09:16:37.995Z,101099.47
2022-08-23T09:19:08.041Z,101095.25
2022-08-23T09:21:46.170Z,101083.50
2022-08-23T09:24:16.629Z,101081.03
2022-08-23T09:27:07.019Z,101104.84
2022-08-23T09:29:41.862Z,101101.88
2022-08-23T09:32:29.949Z,101098.97
2022-08-23T09:35:13.336Z,101068.69
2022-08-23T09:38:00.739Z,101098.66
2022-08-23T09:40:41.059Z,101096.94
2022-08-23T09:43:15.875Z,101100.53
2022-08-23T09:46:01.995Z,101084.94
2022-08-23T09:48:40.025Z,101076.44
2022-08-23T09:51:21.212Z,101082.94
2022-08-23T09:53:55.211Z,101089.19
2022-08-23T09:56:27.897Z,101088.06
2022-08-23T09:58:57.743Z,101091.59
2022-08-23T10:01:42.644Z,101074.00
2022-08-23T10:04:18.783Z,101083.88
2022-08-23T10:06:48.851Z,101061.28
2022-08-23T10:09:26.973Z,101025.31
2022-08-23T10:11:59.208Z,101068.34
2022-08-23T10:14:33.067Z,101059.63
2022-08-23T10:17:17.398Z,101060.16
2022-08-23T10:19:57.341Z,101056.69
2022-08-23T10:22:29.665Z,101059.63
2022-08-23T10:25:29.293Z,101061.53
2022-08-23T10:28:22.063Z,101064.22
2022-08-23T10:31:00.087Z,101059.75
2022-08-23T10:33:45.554Z,101017.41
2022-08-23T10:36:21.233Z,101065.69
2022-08-23T10:38:56.934Z,101054.63
2022-08-23T10:41:50.323Z,101059.31
2022-08-23T10:44:27.353Z,101045.47
2022-08-23T10:47:07.549Z,101002.41
2022-08-23T10:49:42.383Z,101053.69
2022-08-23T10:52:19.963Z,101053.09
2022-08-23T10:55:06.405Z,101054.28
2022-08-23T10:57:40.764Z,101047.50
2022-08-23T11:00:16.040Z,101057.00
2022-08-23T11:02:56.258Z,101053.09
2022-08-23T11:05:35.936Z,101028.28
2022-08-23T11:08:32.597Z,101041.72
2022-08-23T11:11:04.287Z,101050.47
2022-08-23T11:13:37.039Z,101015.78
2022-08-23T11:16:15.944Z,101041.72
2022-08-23T11:18:49.742Z,101041.81
2022-08-23T11:21:51.119Z,101042.41
2022-08-23T11:24:51.971Z,101039.34
2022-08-23T11:27:42.349Z,100991.50
2022-08-23T11:30:50.065Z,101044.53
2022-08-23T11:33:28.814Z,101037.94
2022-08-23T11:36:21.821Z,101036.66
2022-08-23T11:39:15.770Z,101034.84
2022-08-23T11:42:09.159Z,101037.59
2022-08-23T11:44:49.726Z,101029.94
2022-08-23T11:47:30.569Z,101021.97
2022-08-23T11:50:19.974Z,101015.69
2022-08-23T11:53:01.661Z,101022.66
2022-08-23T11:56:02.603Z,101007.88
2022-08-23T11:58:48.499Z,101020.63
2022-08-23T12:01:19.256Z,100999.91
2022-08-23T12:03:59.963Z,101005.16
2022-08-23T12:06:50.460Z,101011.09
2022-08-23T12:09:56.355Z,101015.34
2022-08-23T12:12:41.750Z,101008.47
2022-08-23T12:15:15.898Z,101004.25
2022-08-23T12:18:13.964Z,101007.00
2022-08-23T12:20:48.310Z,101009.56
2022-08-23T12:23:22.766Z,101008.78
2022-08-23T12:26:06.305Z,100990.84
2022-08-23T12:28:45.727Z,100995.28
2022-08-23T12:31:24.729Z,101011.53
2022-08-23T12:34:18.267Z,101006.47
2022-08-23T12:36:54.329Z,100992.25
2022-08-23T12:39:28.821Z,101011.19
2022-08-23T12:42:09.138Z,101005.75
2022-08-23T12:44:41.329Z,100980.69
2022-08-23T12:47:20.231Z,100999.41
2022-08-23T12:50:00.390Z,101000.25
2022-08-23T12:52:33.315Z,100990.06
2022-08-23T12:55:03.177Z,100997.13
2022-08-23T12:57:36.510Z,100992.44
2022-08-23T13:00:20.706Z,100995.72
2022-08-23T13:02:55.482Z,100995.63
2022-08-23T13:05:39.645Z,100991.94
2022-08-23T13:08:12.478Z,100993.56
2022-08-23T13:10:46.232Z,100991.13
2022-08-23T13:13:19.424Z,100989.28
2022-08-23T13:15:55.672Z,100980.44
2022-08-23T13:18:35.556Z,100985.97
2022-08-23T13:21:39.620Z,100995.63
2022-08-23T13:24:37.904Z,100990.59
2022-08-23T13:27:24.031Z,100985.72
2022-08-23T13:29:57.464Z,100989.47
2022-08-23T13:32:39.258Z,100988.34
2022-08-23T13:35:29.447Z,100991.09
2022-08-23T13:38:02.274Z,100981.38
2022-08-23T13:40:34.662Z,100974.41
2022-08-23T13:43:10.157Z,100991.94
2022-08-23T13:45:48.264Z,100983.47
2022-08-23T13:48:24.767Z,100980.44
2022-08-23T13:50:54.763Z,100982.59
2022-08-23T13:53:24.652Z,100982.50
2022-08-23T13:55:58.603Z,100975.84
2022-08-23T13:58:31.393Z,100983.97
2022-08-23T14:01:02.429Z,100974.00
2022-08-23T14:03:35.426Z,100972.53
2022-08-23T14:06:04.976Z,100978.06
2022-08-23T14:08:34.741Z,100971.28
2022-08-23T14:11:04.412Z,100979.78
2022-08-23T14:13:36.784Z,100973.28
2022-08-23T14:19:54.606Z,100967.41
2022-08-23T14:21:53.331Z,100971.75
2022-08-23T14:24:23.666Z,100970.16
2022-08-23T14:26:53.356Z,100975.31
2022-08-23T14:29:23.854Z,100971.16
2022-08-23T14:31:54.506Z,100971.16
2022-08-23T14:34:26.838Z,100975.97
2022-08-23T14:39:46.258Z,100968.66
2022-08-23T14:42:18.875Z,100961.38
2022-08-23T14:44:48.469Z,100959.47
2022-08-23T14:47:18.240Z,100953.09
2022-08-23T14:49:53.678Z,100949.88
2022-08-23T14:52:24.844Z,100941.69
2022-08-23T14:54:54.499Z,100953.81
2022-08-23T14:57:24.153Z,100949.69
2022-08-23T14:59:53.789Z,100934.31
2022-08-23T15:02:27.227Z,100942.88
2022-08-23T15:04:59.369Z,100942.28
2022-08-23T15:07:28.963Z,100912.56
2022-08-23T15:09:58.619Z,100953.59
2022-08-23T15:15:21.924Z,100949.09
2022-08-23T15:17:54.580Z,100953.44
2022-08-23T15:20:30.050Z,100951.72
2022-08-23T15:23:00.420Z,100954.34
2022-08-23T15:25:33.390Z,100958.69
2022-08-23T15:28:03.754Z,100929.25
2022-08-23T15:30:35.275Z,100957.81
2022-08-23T15:33:05.173Z,100937.00
2022-08-23T15:35:42.628Z,100939.22
2022-08-23T15:38:15.572Z,100956.25
2022-08-23T15:40:45.640Z,100952.91
2022-08-23T15:43:15.942Z,100946.31
2022-08-23T15:45:45.862Z,100952.59
2022-08-23T15:48:19.317Z,100944.09
2022-08-23T15:50:52.089Z,100954.56
2022-08-23T15:53:22.140Z,100954.09
2022-08-23T15:55:52.212Z,100945.16
2022-08-23T15:58:25.839Z,100946.44
2022-08-23T16:00:56.822Z,100937.47
2022-08-23T16:03:26.538Z,100938.56
2022-08-23T16:05:58.847Z,100951.19
2022-08-23T16:08:32.689Z,100956.13
2022-08-23T16:11:05.066Z,100937.84
2022-08-23T16:13:34.770Z,100947.00
2022-08-23T16:16:06.002Z,100919.38
2022-08-23T16:18:35.650Z,100948.94
2022-08-23T16:21:08.168Z,100951.75
2022-08-23T16:23:39.871Z,100933.84
2022-08-23T16:26:11.089Z,100928.63
2022-08-23T16:28:43.983Z,100947.34
2022-08-23T16:31:14.466Z,100946.44
2022-08-23T16:33:44.443Z,100909.97
2022-08-23T16:36:18.269Z,100944.19
2022-08-23T16:38:48.115Z,100938.69
2022-08-23T16:41:18.068Z,100947.56
2022-08-23T16:43:51.245Z,100951.00
2022-08-23T16:46:22.994Z,100951.06
2022-08-23T16:48:52.815Z,100943.84
2022-08-23T16:51:25.542Z,100955.75
2022-08-23T16:54:02.984Z,100955.31
2022-08-23T16:56:33.512Z,100964.75
2022-08-23T16:59:03.645Z,100961.34
2022-08-23T17:01:34.537Z,100953.19
2022-08-23T17:04:04.212Z,100955.75
2022-08-23T17:06:36.355Z,100949.63
2022-08-23T17:09:06.731Z,100961.28
2022-08-23T17:11:36.942Z,100962.88
2022-08-23T17:14:07.446Z,100948.63
2022-08-23T17:16:37.223Z,100929.66
2022-08-23T17:19:07.519Z,100972.81
2022-08-23T17:21:40.093Z,100960.44
2022-08-23T17:24:10.363Z,100953.97
2022-08-23T17:26:40.367Z,100979.66
2022-08-23T17:29:12.330Z,100972.97
2022-08-23T17:31:42.232Z,100960.13
2022-08-23T17:34:12.014Z,100992.47
2022-08-23T17:36:47.832Z,100981.38
2022-08-23T17:39:19.800Z,100990.25
2022-08-23T17:41:49.587Z,100973.69
2022-08-23T17:44:20.449Z,100987.19
2022-08-23T17:46:50.882Z,100973.19
2022-08-23T17:49:22.871Z,100995.00
2022-08-23T17:51:55.057Z,101002.72
2022-08-23T17:54:25.230Z,100975.88
2022-08-23T17:56:54.872Z,100993.22
2022-08-23T17:59:25.932Z,100993.69
2022-08-23T18:01:55.652Z,101004.50
2022-08-23T18:04:25.421Z,101004.88
2022-08-23T18:06:58.441Z,101016.41
2022-08-23T18:09:28.381Z,101007.06
2022-08-23T18:11:58.099Z,101015.78
2022-08-23T18:14:28.191Z,101021.44
2022-08-23T18:16:58.733Z,101018.41
2022-08-23T18:19:28.515Z,101011.69
2022-08-23T18:22:02.460Z,101028.34
2022-08-23T18:24:33.353Z,101017.66
2022-08-23T18:27:20.837Z,101029.09
2022-08-23T18:29:52.066Z,101021.72
2022-08-23T18:32:23.159Z,101022.34
2022-08-23T18:34:53.451Z,101024.50
2022-08-23T18:37:25.778Z,101029.13
2022-08-23T18:39:55.371Z,101032.13
2022-08-23T18:42:25.059Z,101036.16
2022-08-23T18:44:54.711Z,101046.56
2022-08-23T18:47:24.293Z,101024.47
2022-08-23T18:49:53.886Z,101041.91
2022-08-23T18:52:27.548Z,101033.88
2022-08-23T18:55:02.822Z,101055.22
2022-08-23T18:57:33.222Z,101051.16
2022-08-23T19:00:02.934Z,101054.63
2022-08-23T19:02:32.693Z,101047.84
2022-08-23T19:05:03.074Z,101056.28
2022-08-23T19:07:35.209Z,101057.94
2022-08-23T19:10:06.255Z,101060.25
2022-08-23T19:12:35.999Z,101061.38
2022-08-23T19:15:06.163Z,101070.28
2022-08-23T19:17:36.791Z,101074.66
2022-08-23T19:20:09.603Z,101079.72
2022-08-23T19:22:43.287Z,101083.56
2022-08-23T19:25:13.166Z,101072.47
2022-08-23T19:27:43.256Z,101081.56
2022-08-23T19:30:16.051Z,101090.19
2022-08-23T19:32:47.731Z,101093.13
2022-08-23T19:35:19.287Z,101095.84
2022-08-23T19:37:51.546Z,101093.63
2022-08-23T19:40:21.424Z,101095.75
2022-08-23T19:42:53.177Z,101107.09
2022-08-23T19:45:26.006Z,101096.81
2022-08-23T19:48:02.841Z,101108.44
2022-08-23T19:50:32.579Z,101101.59
2022-08-23T19:53:06.988Z,101108.94
2022-08-23T19:55:37.794Z,101106.16
2022-08-23T19:58:07.394Z,101090.06
2022-08-23T20:00:43.866Z,101116.53
2022-08-23T20:03:14.065Z,101121.94
2022-08-23T20:05:43.879Z,101116.84
2022-08-23T20:08:16.070Z,101128.19
2022-08-23T20:10:46.002Z,101122.44
2022-08-23T20:13:15.999Z,101111.41
2022-08-23T20:15:45.593Z,101129.63
2022-08-23T20:18:15.194Z,101129.53
2022-08-23T20:20:45.010Z,101135.75
2022-08-23T20:23:31.639Z,101121.41
2022-08-23T20:26:01.257Z,101123.25
2022-08-23T20:28:31.641Z,101126.78
2022-08-23T20:31:08.820Z,101133.81
2022-08-23T20:33:38.450Z,101132.97
2022-08-23T20:36:08.178Z,101132.31
2022-08-23T20:38:40.498Z,101135.00
2022-08-23T20:41:11.943Z,101138.47
2022-08-23T20:43:50.179Z,101135.00
2022-08-23T20:46:20.002Z,101132.47
2022-08-23T20:48:51.487Z,101140.06
2022-08-23T20:51:22.327Z,101140.22
2022-08-23T20:53:54.863Z,101129.00
2022-08-23T20:56:28.204Z,101138.38
2022-08-23T20:58:58.932Z,101143.75
2022-08-23T21:01:28.701Z,101136.28
2022-08-23T21:04:00.156Z,101129.63
2022-08-23T21:06:34.006Z,101141.38
2022-08-23T21:09:08.097Z,101138.16
2022-08-23T21:11:37.694Z,101120.25
2022-08-23T21:14:08.373Z,101142.41
2022-08-23T21:16:39.269Z,101148.53
2022-08-23T21:19:09.614Z,101149.00
2022-08-23T21:21:41.121Z,101161.47
2022-08-23T21:24:14.113Z,101159.09
2022-08-23T21:26:44.946Z,101154.66
2022-08-23T21:29:14.637Z,101144.63
2022-08-23T21:31:44.189Z,101164.56
2022-08-23T21:34:14.524Z,101156.56
2022-08-23T21:36:45.134Z,101156.97
2022-08-23T21:39:17.320Z,101156.38
2022-08-23T21:41:48.486Z,101158.16
2022-08-23T21:44:21.594Z,101152.16
2022-08-23T21:46:53.218Z,101149.13
2022-08-23T21:49:23.561Z,101156.03
2022-08-23T21:51:54.407Z,101150.81
2022-08-23T21:54:26.794Z,101147.19
2022-08-23T21:56:56.348Z,101150.59
2022-08-23T21:59:26.862Z,101151.72
2022-08-23T22:01:56.597Z,101144.06
2022-08-23T22:04:26.385Z,101146.00
2022-08-23T22:06:57.239Z,101152.28
2022-08-23T22:09:32.599Z,101127.56
2022-08-23T22:12:03.535Z,101138.88
2022-08-23T22:14:33.985Z,101146.66
2022-08-23T22:17:03.746Z,101146.97
2022-08-23T22:19:33.375Z,101137.03
2022-08-23T22:22:02.971Z,101140.97
2022-08-23T22:24:35.175Z,101137.13
2022-08-23T22:27:04.802Z,101148.84
2022-08-23T22:29:34.683Z,101145.34
2022-08-23T22:32:04.731Z,101147.66
2022-08-23T22:34:34.294Z,101146.56
2022-08-23T22:37:04.002Z,101114.06
2022-08-23T22:39:36.482Z,101147.59
2022-08-23T22:42:06.301Z,101121.41
2022-08-23T22:44:41.737Z,101154.69
2022-08-23T22:47:11.551Z,101144.81
2022-08-23T22:49:41.442Z,101140.56
2022-08-23T22:52:12.555Z,101154.50
2022-08-23T22:54:44.696Z,101138.59
2022-08-23T22:57:14.280Z,101144.22
2022-08-23T22:59:44.015Z,101152.88
2022-08-23T23:02:13.821Z,101139.16
2022-08-23T23:04:45.666Z,101157.97
2022-08-23T23:07:35.789Z,101153.66
2022-08-23T23:10:08.869Z,101155.09
2022-08-23T23:12:38.465Z,101157.06
2022-08-23T23:15:08.867Z,101162.72
2022-08-23T23:17:38.583Z,101166.38
2022-08-23T23:20:21.717Z,101142.44
2022-08-23T23:22:52.345Z,101134.16
2022-08-23T23:25:24.821Z,101170.16
2022-08-23T23:27:54.437Z,101162.59
2022-08-23T23:30:24.060Z,101166.53
2022-08-23T23:32:53.791Z,101162.00
2022-08-23T23:35:23.680Z,101171.22
2022-08-23T23:37:53.380Z,101121.78
2022-08-23T23:40:28.226Z,101180.88
2022-08-23T23:42:58.149Z,101170.94
2022-08-23T23:45:27.786Z,101168.63
2022-08-23T23:47:58.064Z,101162.03
2022-08-23T23:50:28.293Z,101163.13
2022-08-23T23:52:58.328Z,101165.81
2022-08-23T23:55:31.551Z,101174.25
2022-08-23T23:58:01.713Z,101169.28
